Externo — V2QJ8 — position and weather

sailwx.info

Track history (hours):
 
Tides and Currents Weather Stations Pressure Air Temp Water Temp Dewpoint Dewpoint Depression Visibility Wind Speed Wind Dir Waves Ship Positions

Externo

Last reported at 2017-Dec-16 07:39 UTC. Time now 2017-Dec-17 06:25 UTC.
Position N 35°58' W 005°36'.

Length 141 m; draft 7.7 m.

Type: Ship (hazmat cat C). MMSI: 305838000.

Date/timePositionNaut miles runAvg speedWind from/ knotsBaromVisibWave heightAir tempDewpointWater temp
2017-Dec-16 07:39N 35°58' W 005°36'213.0
2017-Dec-16 07:30N 35°58' W 005°34'11 4.8
2017-Dec-16 05:07N 36°08' W 005°25'0 0.0
2017-Dec-16 04:31N 36°08' W 005°25'0 0.0
2017-Dec-16 04:19N 36°08' W 005°25'0 0.0
2017-Dec-16 03:55N 36°08' W 005°25'0 0.0
2017-Dec-16 03:28N 36°08' W 005°25'0 0.0
2017-Dec-16 02:58N 36°08' W 005°25'0 0.0
2017-Dec-15 21:25N 36°08' W 005°25'0 0.0
2017-Dec-15 20:55N 36°08' W 005°25'0 0.0
2017-Dec-15 20:25N 36°08' W 005°25'0 0.0
2017-Dec-15 19:55N 36°08' W 005°25'5 1.3
2017-Dec-15 16:16N 36°03' W 005°23'311.6
2017-Dec-15 16:01N 36°00' W 005°23'714.7
2017-Dec-15 15:30N 35°57' W 005°31'25310.6
2017-Dec-14 15:35N 38°13' W 009°58'813.4
2017-Dec-14 15:00N 38°21' W 009°60'713.3
2017-Dec-14 14:30N 38°27' W 010°02'713.2
2017-Dec-14 14:00N 38°34' W 010°04'1013.3
2017-Dec-14 13:13N 38°44' W 010°06'513.3
2017-Dec-14 12:48N 38°49' W 010°06'413.1
2017-Dec-14 12:30N 38°53' W 010°06'612.9
2017-Dec-14 12:00N 38°60' W 010°06'713.1
2017-Dec-14 11:30N 39°06' W 010°07'713.3
2017-Dec-14 11:00N 39°13' W 010°07'69414.7
2017-Dec-12 11:55N 49°46' W 003°27'615.6
2017-Dec-12 11:30N 49°49' W 003°19'916.2
2017-Dec-12 10:56N 49°54' W 003°06'716.6
2017-Dec-12 10:31N 49°57' W 002°57'917.1
2017-Dec-12 10:00N 49°60' W 002°44'917.7
2017-Dec-12 09:30N 50°02' W 002°31'1418.2
2017-Dec-12 08:43N 50°03' W 002°08'818.1
2017-Dec-12 08:18N 50°00' W 001°58'4417.3
2017-Dec-12 05:45N 49°43' W 000°55'416.0
2017-Dec-12 05:31N 49°41' W 000°49'815.8
2017-Dec-12 05:01N 49°38' W 000°38'815.5
2017-Dec-12 04:30N 49°35' W 000°27'815.4
2017-Dec-12 04:00N 49°32' W 000°16'815.4
2017-Dec-12 03:30N 49°29' W 000°05'612.7
2017-Dec-12 03:00N 49°27' E 000°04'713.4
2017-Dec-12 02:30N 49°26' E 000°14'611.6
2017-Dec-12 02:01N 49°27' E 000°23'611.9
2017-Dec-12 01:30N 49°29' E 000°31'5 9.7
2017-Dec-12 01:00N 49°26' E 000°37'612.2
2017-Dec-12 00:30N 49°31' E 000°42'3 6.6
2017-Dec-12 00:01N 49°29' E 000°46'4 8.7
2017-Dec-11 23:31N 49°25' E 000°48'2 4.5
2017-Dec-11 23:00N 49°26' E 000°52'4 7.4
2017-Dec-11 22:31N 49°28' E 000°56'611.9
2017-Dec-11 22:01N 49°22' E 000°55'3 5.3
2017-Dec-11 21:30N 49°21' E 000°59'0 0.0
2017-Dec-11 21:00N 49°21' E 000°59'0 0.0
2017-Dec-11 20:30N 49°21' E 000°59'0 0.0
2017-Dec-11 20:00N 49°21' E 000°59'0 0.0
2017-Dec-11 19:30N 49°21' E 000°59'0 0.0
2017-Dec-11 19:00N 49°21' E 000°59'0 0.0
2017-Dec-11 18:30N 49°21' E 000°59'0 0.0
2017-Dec-11 18:00N 49°21' E 000°59'0 0.0
2017-Dec-11 17:30N 49°21' E 000°59'0 0.0
2017-Dec-11 17:00N 49°21' E 000°59'0 0.0
2017-Dec-11 16:30N 49°21' E 000°59'0 0.0
2017-Dec-11 15:57N 49°21' E 000°59'0 0.0
2017-Dec-11 15:27N 49°21' E 000°59'0 0.0
2017-Dec-11 15:00N 49°21' E 000°59'0 0.0
2017-Dec-11 14:30N 49°21' E 000°59'0 0.0
2017-Dec-11 14:00N 49°21' E 000°59'0 0.0
2017-Dec-11 13:30N 49°21' E 000°59'0 0.0
2017-Dec-11 13:00N 49°21' E 000°59'0 0.0
2017-Dec-11 12:30N 49°21' E 000°59'0 0.0
2017-Dec-11 12:00N 49°21' E 000°59'0 0.0
2017-Dec-11 11:30N 49°21' E 000°59'0 0.0
2017-Dec-11 11:00N 49°21' E 000°59'0 0.0
2017-Dec-11 10:30N 49°21' E 000°59'0 0.0
2017-Dec-11 10:00N 49°21' E 000°59'0 0.0
2017-Dec-11 09:30N 49°21' E 000°59'0 0.0
2017-Dec-11 09:00N 49°21' E 000°59'0 0.0
2017-Dec-11 08:30N 49°21' E 000°59'0 0.0
2017-Dec-11 08:00N 49°21' E 000°59'0 0.0
2017-Dec-11 07:30N 49°21' E 000°59'0 0.0
2017-Dec-11 07:00N 49°21' E 000°59'0 0.0
2017-Dec-11 06:30N 49°21' E 000°59'0 0.0
2017-Dec-11 06:00N 49°21' E 000°59'0 0.0
2017-Dec-11 05:30N 49°21' E 000°59'0 0.2
2017-Dec-11 05:00N 49°21' E 000°59'4 7.2
2017-Dec-11 04:30N 49°24' E 000°55'510.1
2017-Dec-11 04:01N 49°29' E 000°53'510.8
2017-Dec-11 03:31N 49°24' E 000°52'510.1
2017-Dec-11 03:00N 49°28' E 000°49'5 9.9
2017-Dec-11 02:30N 49°31' E 000°42'611.2
2017-Dec-11 02:00N 49°26' E 000°38'510.2
2017-Dec-11 01:31N 49°29' E 000°31'611.7
2017-Dec-11 01:00N 49°27' E 000°23'713.6
2017-Dec-11 00:31N 49°26' E 000°13'713.3
2017-Dec-11 00:01N 49°27' E 000°02'510.6
2017-Dec-10 23:31N 49°29' W 000°05'611.3
2017-Dec-10 23:00N 49°31' W 000°13'714.8
2017-Dec-10 22:30N 49°37' W 000°19'815.3
2017-Dec-10 22:00N 49°45' W 000°20'816.1
2017-Dec-10 21:30N 49°53' W 000°19'816.8
2017-Dec-10 21:00N 50°01' W 000°17'917.0
2017-Dec-10 20:30N 50°09' W 000°15'917.1
2017-Dec-10 19:59N 50°18' W 000°10'816.9
2017-Dec-10 19:30N 50°26' W 000°07'816.5
2017-Dec-10 19:00N 50°29' E 000°05'816.4
2017-Dec-10 18:30N 50°31' E 000°17'815.7
2017-Dec-10 18:00N 50°34' E 000°29'714.0
2017-Dec-10 17:30N 50°36' E 000°39'612.1
2017-Dec-10 17:00N 50°39' E 000°48'611.3
2017-Dec-10 16:31N 50°43' E 000°55'510.1
2017-Dec-10 16:00N 50°45' E 001°02'4 7.9
2017-Dec-10 15:28N 50°48' E 001°06'2 4.6
2017-Dec-10 15:00N 50°50' E 001°09'2 2.6
2017-Dec-10 14:14N 50°52' E 001°10'0 2.0
2017-Dec-10 14:00N 50°52' E 001°11'1 1.1
2017-Dec-10 13:30N 50°52' E 001°12'1 1.4
2017-Dec-10 13:00N 50°52' E 001°13'1 1.6
2017-Dec-10 12:30N 50°53' E 001°14'3 5.7
2017-Dec-10 12:00N 50°55' E 001°17'611.5
2017-Dec-10 11:30N 50°59' E 001°24'713.7
2017-Dec-10 11:00N 51°04' E 001°31'714.3
2017-Dec-10 10:30N 51°09' E 001°39'815.3
2017-Dec-10 10:00N 51°15' E 001°47'815.1
2017-Dec-10 09:30N 51°21' E 001°54'815.0
2017-Dec-10 09:00N 51°27' E 002°00'815.1
2017-Dec-10 08:30N 51°33' E 002°09'815.2
2017-Dec-10 08:00N 51°39' E 002°17'5614.3
2017-Dec-10 04:04N 52°03' E 003°38'116.5
2017-Dec-10 04:00N 52°03' E 003°40'815.6
2017-Dec-10 03:30N 52°03' E 003°52'611.4
2017-Dec-10 03:00N 52°00' E 004°01'714.3
2017-Dec-10 02:31N 51°57' E 004°11'612.9
2017-Dec-10 02:00N 51°54' E 004°20'3 7.0
2017-Dec-10 01:30N 51°53' E 004°25'0 0.0
2017-Dec-10 01:00N 51°53' E 004°25'0 0.0
2017-Dec-10 00:30N 51°53' E 004°25'0 0.0
2017-Dec-10 00:00N 51°53' E 004°25'0 0.0
2017-Dec-09 23:30N 51°53' E 004°25'0 0.0
2017-Dec-09 23:00N 51°53' E 004°25'0 0.0
2017-Dec-09 22:30N 51°53' E 004°25'0 0.0
2017-Dec-09 22:00N 51°53' E 004°25'0 0.0
2017-Dec-09 21:30N 51°53' E 004°25'0 0.0
2017-Dec-09 21:00N 51°53' E 004°25'0 0.0
2017-Dec-09 20:30N 51°53' E 004°25'0 0.0
2017-Dec-09 20:00N 51°53' E 004°25'1 1.0
2017-Dec-09 19:30N 51°53' E 004°25'1 2.8
2017-Dec-09 19:00N 51°54' E 004°26'1 1.6
2017-Dec-09 18:30N 51°53' E 004°26'0 0.0
2017-Dec-09 18:00N 51°53' E 004°26'0 0.0
2017-Dec-09 17:30N 51°53' E 004°26'0 0.0
2017-Dec-09 17:00N 51°53' E 004°26'0 0.0
2017-Dec-09 16:30N 51°53' E 004°26'0 0.0
2017-Dec-09 16:00N 51°53' E 004°26'0 0.1
2017-Dec-09 15:31N 51°53' E 004°26'0 0.1
2017-Dec-09 14:59N 51°53' E 004°26'0 0.0
2017-Dec-09 14:29N 51°53' E 004°26'0 0.0
2017-Dec-09 13:59N 51°53' E 004°26'0 0.0
2017-Dec-09 13:29N 51°53' E 004°26'0 0.0
2017-Dec-09 12:59N 51°53' E 004°26'0 0.0
2017-Dec-09 12:29N 51°53' E 004°26'0 0.0
2017-Dec-09 11:59N 51°53' E 004°26'0 0.0
2017-Dec-09 11:29N 51°53' E 004°26'0 0.0
2017-Dec-09 10:59N 51°53' E 004°26'0 0.0
2017-Dec-09 10:29N 51°53' E 004°26'0 0.0
2017-Dec-09 09:59N 51°53' E 004°26'0 0.0
2017-Dec-09 09:29N 51°53' E 004°26'0 0.0
2017-Dec-09 08:59N 51°53' E 004°26'0 0.0
2017-Dec-09 08:29N 51°53' E 004°26'0 0.0
2017-Dec-09 07:59N 51°53' E 004°26'0 0.0
2017-Dec-09 07:29N 51°53' E 004°26'0 0.0
2017-Dec-09 06:59N 51°53' E 004°26'0 0.0
2017-Dec-09 06:29N 51°53' E 004°26'0 0.0
2017-Dec-09 05:59N 51°53' E 004°26'0 0.0
2017-Dec-09 05:29N 51°53' E 004°26'0 0.0
2017-Dec-09 04:59N 51°53' E 004°26'0 0.0
2017-Dec-09 04:29N 51°53' E 004°26'0 0.0
2017-Dec-09 03:59N 51°53' E 004°26'0 0.0
2017-Dec-09 03:29N 51°53' E 004°26'0 0.0
2017-Dec-09 02:56N 51°53' E 004°26'0 0.0
2017-Dec-09 02:29N 51°53' E 004°26'0 0.0
2017-Dec-09 01:59N 51°53' E 004°26'0 0.0
2017-Dec-09 01:29N 51°53' E 004°26'0 0.0
2017-Dec-09 00:59N 51°53' E 004°26'0 0.0
2017-Dec-09 00:29N 51°53' E 004°26'0 0.0
2017-Dec-08 23:59N 51°53' E 004°26'0 0.0
2017-Dec-08 23:29N 51°53' E 004°26'0 0.0
2017-Dec-08 22:59N 51°53' E 004°26'0 0.0
2017-Dec-08 22:30N 51°53' E 004°26'0 0.6
2017-Dec-08 21:59N 51°53' E 004°26'0 0.0
2017-Dec-08 21:29N 51°53' E 004°26'0 0.0
2017-Dec-08 20:59N 51°53' E 004°26'0 0.0
2017-Dec-08 20:29N 51°53' E 004°26'0 0.0
2017-Dec-08 19:59N 51°53' E 004°26'0 0.0
2017-Dec-08 19:29N 51°53' E 004°26'0 0.0
2017-Dec-08 18:59N 51°53' E 004°26'0 0.0
2017-Dec-08 18:29N 51°53' E 004°26'0 0.0
2017-Dec-08 17:59N 51°53' E 004°26'0 0.0
2017-Dec-08 17:29N 51°53' E 004°26'0 0.0
2017-Dec-08 16:59N 51°53' E 004°26'0 0.0
2017-Dec-08 16:29N 51°53' E 004°26'0 0.0
2017-Dec-08 15:59N 51°53' E 004°26'0 0.0
2017-Dec-08 15:29N 51°53' E 004°26'0 0.0
2017-Dec-08 14:59N 51°53' E 004°26'0 0.0
2017-Dec-08 14:29N 51°53' E 004°26'0 0.0
2017-Dec-08 13:59N 51°53' E 004°26'0 0.0
2017-Dec-08 13:29N 51°53' E 004°26'0 0.0
2017-Dec-08 12:59N 51°53' E 004°26'0 0.0
2017-Dec-08 12:29N 51°53' E 004°26'0 0.0
2017-Dec-08 11:59N 51°53' E 004°26'0 0.0
2017-Dec-08 11:29N 51°53' E 004°26'0 0.0
2017-Dec-08 10:59N 51°53' E 004°26'0 0.0
2017-Dec-08 10:29N 51°53' E 004°26'0 0.0
2017-Dec-08 09:59N 51°53' E 004°26'0 0.0
2017-Dec-08 09:29N 51°53' E 004°26'0 0.0
2017-Dec-08 08:59N 51°53' E 004°26'0 0.0
2017-Dec-08 08:29N 51°53' E 004°26'0 0.0
2017-Dec-08 07:59N 51°53' E 004°26'0 0.0
2017-Dec-08 07:29N 51°53' E 004°26'0 0.0
2017-Dec-08 06:59N 51°53' E 004°26'0 0.0
2017-Dec-08 06:29N 51°53' E 004°26'0 0.0
2017-Dec-08 05:59N 51°53' E 004°26'0 0.0
2017-Dec-08 05:29N 51°53' E 004°26'0 0.0
2017-Dec-08 04:59N 51°53' E 004°26'0 0.0
2017-Dec-08 04:29N 51°53' E 004°26'0 0.4
2017-Dec-08 04:01N 51°54' E 004°26'4 7.5
2017-Dec-08 03:30N 51°54' E 004°20'612.3
2017-Dec-08 03:00N 51°57' E 004°11'713.4
2017-Dec-08 02:30N 51°60' E 004°02'713.9
2017-Dec-08 02:00N 52°01' E 003°51'815.3
2017-Dec-08 01:30N 52°09' E 003°46'815.6
2017-Dec-08 00:58N 52°17' E 003°47'713.1
2017-Dec-08 00:28N 52°23' E 003°49'512.0
2017-Dec-08 00:00N 52°29' E 003°51'711.7
2017-Dec-07 23:25N 52°36' E 003°52'511.1
2017-Dec-07 23:00N 52°40' E 003°54'1510.9
2017-Dec-07 21:36N 52°55' E 003°60'4311.6
2017-Dec-07 17:56N 53°29' E 004°42'610.6
2017-Dec-07 17:19N 53°32' E 004°52'410.8
2017-Dec-07 16:54N 53°33' E 004°59'12411.6
2017-Dec-07 06:13N 53°59' E 008°23'918.7
2017-Dec-07 05:45N 53°57' E 008°38'519.7
2017-Dec-07 05:30N 53°53' E 008°43'715.0
2017-Dec-07 05:00N 53°51' E 008°55'816.1
2017-Dec-07 04:30N 53°53' E 009°08'713.1
2017-Dec-07 04:00N 53°51' E 009°19'714.7
2017-Dec-07 03:30N 53°45' E 009°25'714.0
2017-Dec-07 03:01N 53°39' E 009°31'713.2
2017-Dec-07 02:30N 53°34' E 009°39'611.0
2017-Dec-07 02:00N 53°33' E 009°48'4 7.9
2017-Dec-07 01:30N 53°33' E 009°54'3 5.3
2017-Dec-07 01:00N 53°30' E 009°56'0 0.0
2017-Dec-07 00:28N 53°30' E 009°56'0 0.0
2017-Dec-06 23:58N 53°30' E 009°56'0 0.0
2017-Dec-06 23:28N 53°30' E 009°56'0 0.0
2017-Dec-06 22:58N 53°30' E 009°56'0 0.0
2017-Dec-06 22:28N 53°30' E 009°56'0 0.0
2017-Dec-06 21:58N 53°30' E 009°56'0 0.0
2017-Dec-06 21:31N 53°30' E 009°56'0 0.5
2017-Dec-06 21:00N 53°30' E 009°56'  
Track history (hours):
 
Tides and Currents Weather Stations Pressure Air Temp Water Temp Dewpoint Dewpoint Depression Visibility Wind Speed Wind Dir Waves Ship Positions

Externo

Last reported at 2017-Dec-16 07:39 UTC. Time now 2017-Dec-17 06:25 UTC.
Position N 35°58' W 005°36'.

Length 141 m; draft 7.7 m.

Type: Ship (hazmat cat C). MMSI: 305838000.

Date/timePositionNaut miles runAvg speedWind from/ knotsBaromVisibWave heightAir tempDewpointWater temp
2017-Dec-16 07:39N 35°58' W 005°36'213.0
2017-Dec-16 07:30N 35°58' W 005°34'11 4.8
2017-Dec-16 05:07N 36°08' W 005°25'0 0.0
2017-Dec-16 04:31N 36°08' W 005°25'0 0.0
2017-Dec-16 04:19N 36°08' W 005°25'0 0.0
2017-Dec-16 03:55N 36°08' W 005°25'0 0.0
2017-Dec-16 03:28N 36°08' W 005°25'0 0.0
2017-Dec-16 02:58N 36°08' W 005°25'0 0.0
2017-Dec-15 21:25N 36°08' W 005°25'0 0.0
2017-Dec-15 20:55N 36°08' W 005°25'0 0.0
2017-Dec-15 20:25N 36°08' W 005°25'0 0.0
2017-Dec-15 19:55N 36°08' W 005°25'5 1.3
2017-Dec-15 16:16N 36°03' W 005°23'311.6
2017-Dec-15 16:01N 36°00' W 005°23'714.7
2017-Dec-15 15:30N 35°57' W 005°31'25310.6
2017-Dec-14 15:35N 38°13' W 009°58'813.4
2017-Dec-14 15:00N 38°21' W 009°60'713.3
2017-Dec-14 14:30N 38°27' W 010°02'713.2
2017-Dec-14 14:00N 38°34' W 010°04'1013.3
2017-Dec-14 13:13N 38°44' W 010°06'513.3
2017-Dec-14 12:48N 38°49' W 010°06'413.1
2017-Dec-14 12:30N 38°53' W 010°06'612.9
2017-Dec-14 12:00N 38°60' W 010°06'713.1
2017-Dec-14 11:30N 39°06' W 010°07'713.3
2017-Dec-14 11:00N 39°13' W 010°07'69414.7
2017-Dec-12 11:55N 49°46' W 003°27'615.6
2017-Dec-12 11:30N 49°49' W 003°19'916.2
2017-Dec-12 10:56N 49°54' W 003°06'716.6
2017-Dec-12 10:31N 49°57' W 002°57'917.1
2017-Dec-12 10:00N 49°60' W 002°44'917.7
2017-Dec-12 09:30N 50°02' W 002°31'1418.2
2017-Dec-12 08:43N 50°03' W 002°08'818.1
2017-Dec-12 08:18N 50°00' W 001°58'4417.3
2017-Dec-12 05:45N 49°43' W 000°55'416.0
2017-Dec-12 05:31N 49°41' W 000°49'815.8
2017-Dec-12 05:01N 49°38' W 000°38'815.5
2017-Dec-12 04:30N 49°35' W 000°27'815.4
2017-Dec-12 04:00N 49°32' W 000°16'815.4
2017-Dec-12 03:30N 49°29' W 000°05'612.7
2017-Dec-12 03:00N 49°27' E 000°04'713.4
2017-Dec-12 02:30N 49°26' E 000°14'611.6
2017-Dec-12 02:01N 49°27' E 000°23'611.9
2017-Dec-12 01:30N 49°29' E 000°31'5 9.7
2017-Dec-12 01:00N 49°26' E 000°37'612.2
2017-Dec-12 00:30N 49°31' E 000°42'3 6.6
2017-Dec-12 00:01N 49°29' E 000°46'4 8.7
2017-Dec-11 23:31N 49°25' E 000°48'2 4.5
2017-Dec-11 23:00N 49°26' E 000°52'4 7.4
2017-Dec-11 22:31N 49°28' E 000°56'611.9
2017-Dec-11 22:01N 49°22' E 000°55'3 5.3
2017-Dec-11 21:30N 49°21' E 000°59'0 0.0
2017-Dec-11 21:00N 49°21' E 000°59'0 0.0
2017-Dec-11 20:30N 49°21' E 000°59'0 0.0
2017-Dec-11 20:00N 49°21' E 000°59'0 0.0
2017-Dec-11 19:30N 49°21' E 000°59'0 0.0
2017-Dec-11 19:00N 49°21' E 000°59'0 0.0
2017-Dec-11 18:30N 49°21' E 000°59'0 0.0
2017-Dec-11 18:00N 49°21' E 000°59'0 0.0
2017-Dec-11 17:30N 49°21' E 000°59'0 0.0
2017-Dec-11 17:00N 49°21' E 000°59'0 0.0
2017-Dec-11 16:30N 49°21' E 000°59'0 0.0
2017-Dec-11 15:57N 49°21' E 000°59'0 0.0
2017-Dec-11 15:27N 49°21' E 000°59'0 0.0
2017-Dec-11 15:00N 49°21' E 000°59'0 0.0
2017-Dec-11 14:30N 49°21' E 000°59'0 0.0
2017-Dec-11 14:00N 49°21' E 000°59'0 0.0
2017-Dec-11 13:30N 49°21' E 000°59'0 0.0
2017-Dec-11 13:00N 49°21' E 000°59'0 0.0
2017-Dec-11 12:30N 49°21' E 000°59'0 0.0
2017-Dec-11 12:00N 49°21' E 000°59'0 0.0
2017-Dec-11 11:30N 49°21' E 000°59'0 0.0
2017-Dec-11 11:00N 49°21' E 000°59'0 0.0
2017-Dec-11 10:30N 49°21' E 000°59'0 0.0
2017-Dec-11 10:00N 49°21' E 000°59'0 0.0
2017-Dec-11 09:30N 49°21' E 000°59'0 0.0
2017-Dec-11 09:00N 49°21' E 000°59'0 0.0
2017-Dec-11 08:30N 49°21' E 000°59'0 0.0
2017-Dec-11 08:00N 49°21' E 000°59'0 0.0
2017-Dec-11 07:30N 49°21' E 000°59'0 0.0
2017-Dec-11 07:00N 49°21' E 000°59'0 0.0
2017-Dec-11 06:30N 49°21' E 000°59'0 0.0
2017-Dec-11 06:00N 49°21' E 000°59'0 0.0
2017-Dec-11 05:30N 49°21' E 000°59'0 0.2
2017-Dec-11 05:00N 49°21' E 000°59'4 7.2
2017-Dec-11 04:30N 49°24' E 000°55'510.1
2017-Dec-11 04:01N 49°29' E 000°53'510.8
2017-Dec-11 03:31N 49°24' E 000°52'510.1
2017-Dec-11 03:00N 49°28' E 000°49'5 9.9
2017-Dec-11 02:30N 49°31' E 000°42'611.2
2017-Dec-11 02:00N 49°26' E 000°38'510.2
2017-Dec-11 01:31N 49°29' E 000°31'611.7
2017-Dec-11 01:00N 49°27' E 000°23'713.6
2017-Dec-11 00:31N 49°26' E 000°13'713.3
2017-Dec-11 00:01N 49°27' E 000°02'510.6
2017-Dec-10 23:31N 49°29' W 000°05'611.3
2017-Dec-10 23:00N 49°31' W 000°13'714.8
2017-Dec-10 22:30N 49°37' W 000°19'815.3
2017-Dec-10 22:00N 49°45' W 000°20'816.1
2017-Dec-10 21:30N 49°53' W 000°19'816.8
2017-Dec-10 21:00N 50°01' W 000°17'917.0
2017-Dec-10 20:30N 50°09' W 000°15'917.1
2017-Dec-10 19:59N 50°18' W 000°10'816.9
2017-Dec-10 19:30N 50°26' W 000°07'816.5
2017-Dec-10 19:00N 50°29' E 000°05'816.4
2017-Dec-10 18:30N 50°31' E 000°17'815.7
2017-Dec-10 18:00N 50°34' E 000°29'714.0
2017-Dec-10 17:30N 50°36' E 000°39'612.1
2017-Dec-10 17:00N 50°39' E 000°48'611.3
2017-Dec-10 16:31N 50°43' E 000°55'510.1
2017-Dec-10 16:00N 50°45' E 001°02'4 7.9
2017-Dec-10 15:28N 50°48' E 001°06'2 4.6
2017-Dec-10 15:00N 50°50' E 001°09'2 2.6
2017-Dec-10 14:14N 50°52' E 001°10'0 2.0
2017-Dec-10 14:00N 50°52' E 001°11'1 1.1
2017-Dec-10 13:30N 50°52' E 001°12'1 1.4
2017-Dec-10 13:00N 50°52' E 001°13'1 1.6
2017-Dec-10 12:30N 50°53' E 001°14'3 5.7
2017-Dec-10 12:00N 50°55' E 001°17'611.5
2017-Dec-10 11:30N 50°59' E 001°24'713.7
2017-Dec-10 11:00N 51°04' E 001°31'714.3
2017-Dec-10 10:30N 51°09' E 001°39'815.3
2017-Dec-10 10:00N 51°15' E 001°47'815.1
2017-Dec-10 09:30N 51°21' E 001°54'815.0
2017-Dec-10 09:00N 51°27' E 002°00'815.1
2017-Dec-10 08:30N 51°33' E 002°09'815.2
2017-Dec-10 08:00N 51°39' E 002°17'5614.3
2017-Dec-10 04:04N 52°03' E 003°38'116.5
2017-Dec-10 04:00N 52°03' E 003°40'815.6
2017-Dec-10 03:30N 52°03' E 003°52'611.4
2017-Dec-10 03:00N 52°00' E 004°01'714.3
2017-Dec-10 02:31N 51°57' E 004°11'612.9
2017-Dec-10 02:00N 51°54' E 004°20'3 7.0
2017-Dec-10 01:30N 51°53' E 004°25'0 0.0
2017-Dec-10 01:00N 51°53' E 004°25'0 0.0
2017-Dec-10 00:30N 51°53' E 004°25'0 0.0
2017-Dec-10 00:00N 51°53' E 004°25'0 0.0
2017-Dec-09 23:30N 51°53' E 004°25'0 0.0
2017-Dec-09 23:00N 51°53' E 004°25'0 0.0
2017-Dec-09 22:30N 51°53' E 004°25'0 0.0
2017-Dec-09 22:00N 51°53' E 004°25'0 0.0
2017-Dec-09 21:30N 51°53' E 004°25'0 0.0
2017-Dec-09 21:00N 51°53' E 004°25'0 0.0
2017-Dec-09 20:30N 51°53' E 004°25'0 0.0
2017-Dec-09 20:00N 51°53' E 004°25'1 1.0
2017-Dec-09 19:30N 51°53' E 004°25'1 2.8
2017-Dec-09 19:00N 51°54' E 004°26'1 1.6
2017-Dec-09 18:30N 51°53' E 004°26'0 0.0
2017-Dec-09 18:00N 51°53' E 004°26'0 0.0
2017-Dec-09 17:30N 51°53' E 004°26'0 0.0
2017-Dec-09 17:00N 51°53' E 004°26'0 0.0
2017-Dec-09 16:30N 51°53' E 004°26'0 0.0
2017-Dec-09 16:00N 51°53' E 004°26'0 0.1
2017-Dec-09 15:31N 51°53' E 004°26'0 0.1
2017-Dec-09 14:59N 51°53' E 004°26'0 0.0
2017-Dec-09 14:29N 51°53' E 004°26'0 0.0
2017-Dec-09 13:59N 51°53' E 004°26'0 0.0
2017-Dec-09 13:29N 51°53' E 004°26'0 0.0
2017-Dec-09 12:59N 51°53' E 004°26'0 0.0
2017-Dec-09 12:29N 51°53' E 004°26'0 0.0
2017-Dec-09 11:59N 51°53' E 004°26'0 0.0
2017-Dec-09 11:29N 51°53' E 004°26'0 0.0
2017-Dec-09 10:59N 51°53' E 004°26'0 0.0
2017-Dec-09 10:29N 51°53' E 004°26'0 0.0
2017-Dec-09 09:59N 51°53' E 004°26'0 0.0
2017-Dec-09 09:29N 51°53' E 004°26'0 0.0
2017-Dec-09 08:59N 51°53' E 004°26'0 0.0
2017-Dec-09 08:29N 51°53' E 004°26'0 0.0
2017-Dec-09 07:59N 51°53' E 004°26'0 0.0
2017-Dec-09 07:29N 51°53' E 004°26'0 0.0
2017-Dec-09 06:59N 51°53' E 004°26'0 0.0
2017-Dec-09 06:29N 51°53' E 004°26'0 0.0
2017-Dec-09 05:59N 51°53' E 004°26'0 0.0
2017-Dec-09 05:29N 51°53' E 004°26'0 0.0
2017-Dec-09 04:59N 51°53' E 004°26'0 0.0
2017-Dec-09 04:29N 51°53' E 004°26'0 0.0
2017-Dec-09 03:59N 51°53' E 004°26'0 0.0
2017-Dec-09 03:29N 51°53' E 004°26'0 0.0
2017-Dec-09 02:56N 51°53' E 004°26'0 0.0
2017-Dec-09 02:29N 51°53' E 004°26'0 0.0
2017-Dec-09 01:59N 51°53' E 004°26'0 0.0
2017-Dec-09 01:29N 51°53' E 004°26'0 0.0
2017-Dec-09 00:59N 51°53' E 004°26'0 0.0
2017-Dec-09 00:29N 51°53' E 004°26'0 0.0
2017-Dec-08 23:59N 51°53' E 004°26'0 0.0
2017-Dec-08 23:29N 51°53' E 004°26'0 0.0
2017-Dec-08 22:59N 51°53' E 004°26'0 0.0
2017-Dec-08 22:30N 51°53' E 004°26'0 0.6
2017-Dec-08 21:59N 51°53' E 004°26'0 0.0
2017-Dec-08 21:29N 51°53' E 004°26'0 0.0
2017-Dec-08 20:59N 51°53' E 004°26'0 0.0
2017-Dec-08 20:29N 51°53' E 004°26'0 0.0
2017-Dec-08 19:59N 51°53' E 004°26'0 0.0
2017-Dec-08 19:29N 51°53' E 004°26'0 0.0
2017-Dec-08 18:59N 51°53' E 004°26'0 0.0
2017-Dec-08 18:29N 51°53' E 004°26'0 0.0
2017-Dec-08 17:59N 51°53' E 004°26'0 0.0
2017-Dec-08 17:29N 51°53' E 004°26'0 0.0
2017-Dec-08 16:59N 51°53' E 004°26'0 0.0
2017-Dec-08 16:29N 51°53' E 004°26'0 0.0
2017-Dec-08 15:59N 51°53' E 004°26'0 0.0
2017-Dec-08 15:29N 51°53' E 004°26'0 0.0
2017-Dec-08 14:59N 51°53' E 004°26'0 0.0
2017-Dec-08 14:29N 51°53' E 004°26'0 0.0
2017-Dec-08 13:59N 51°53' E 004°26'0 0.0
2017-Dec-08 13:29N 51°53' E 004°26'0 0.0
2017-Dec-08 12:59N 51°53' E 004°26'0 0.0
2017-Dec-08 12:29N 51°53' E 004°26'0 0.0
2017-Dec-08 11:59N 51°53' E 004°26'0 0.0
2017-Dec-08 11:29N 51°53' E 004°26'0 0.0
2017-Dec-08 10:59N 51°53' E 004°26'0 0.0
2017-Dec-08 10:29N 51°53' E 004°26'0 0.0
2017-Dec-08 09:59N 51°53' E 004°26'0 0.0
2017-Dec-08 09:29N 51°53' E 004°26'0 0.0
2017-Dec-08 08:59N 51°53' E 004°26'0 0.0
2017-Dec-08 08:29N 51°53' E 004°26'0 0.0
2017-Dec-08 07:59N 51°53' E 004°26'0 0.0
2017-Dec-08 07:29N 51°53' E 004°26'0 0.0
2017-Dec-08 06:59N 51°53' E 004°26'0 0.0
2017-Dec-08 06:29N 51°53' E 004°26'0 0.0
2017-Dec-08 05:59N 51°53' E 004°26'0 0.0
2017-Dec-08 05:29N 51°53' E 004°26'0 0.0
2017-Dec-08 04:59N 51°53' E 004°26'0 0.0
2017-Dec-08 04:29N 51°53' E 004°26'0 0.4
2017-Dec-08 04:01N 51°54' E 004°26'4 7.5
2017-Dec-08 03:30N 51°54' E 004°20'612.3
2017-Dec-08 03:00N 51°57' E 004°11'713.4
2017-Dec-08 02:30N 51°60' E 004°02'713.9
2017-Dec-08 02:00N 52°01' E 003°51'815.3
2017-Dec-08 01:30N 52°09' E 003°46'815.6
2017-Dec-08 00:58N 52°17' E 003°47'713.1
2017-Dec-08 00:28N 52°23' E 003°49'512.0
2017-Dec-08 00:00N 52°29' E 003°51'711.7
2017-Dec-07 23:25N 52°36' E 003°52'511.1
2017-Dec-07 23:00N 52°40' E 003°54'1510.9
2017-Dec-07 21:36N 52°55' E 003°60'4311.6
2017-Dec-07 17:56N 53°29' E 004°42'610.6
2017-Dec-07 17:19N 53°32' E 004°52'410.8
2017-Dec-07 16:54N 53°33' E 004°59'12411.6
2017-Dec-07 06:13N 53°59' E 008°23'918.7
2017-Dec-07 05:45N 53°57' E 008°38'519.7
2017-Dec-07 05:30N 53°53' E 008°43'715.0
2017-Dec-07 05:00N 53°51' E 008°55'816.1
2017-Dec-07 04:30N 53°53' E 009°08'713.1
2017-Dec-07 04:00N 53°51' E 009°19'714.7
2017-Dec-07 03:30N 53°45' E 009°25'714.0
2017-Dec-07 03:01N 53°39' E 009°31'713.2
2017-Dec-07 02:30N 53°34' E 009°39'611.0
2017-Dec-07 02:00N 53°33' E 009°48'4 7.9
2017-Dec-07 01:30N 53°33' E 009°54'3 5.3
2017-Dec-07 01:00N 53°30' E 009°56'0 0.0
2017-Dec-07 00:28N 53°30' E 009°56'0 0.0
2017-Dec-06 23:58N 53°30' E 009°56'0 0.0
2017-Dec-06 23:28N 53°30' E 009°56'0 0.0
2017-Dec-06 22:58N 53°30' E 009°56'0 0.0
2017-Dec-06 22:28N 53°30' E 009°56'0 0.0
2017-Dec-06 21:58N 53°30' E 009°56'0 0.0
2017-Dec-06 21:31N 53°30' E 009°56'0 0.5
2017-Dec-06 21:00N 53°30' E 009°56'  

Dump ship's entire track history